Time;durP1;ratioP1;P1;durP2;ratioP2;P2;SDS_P1;SDS_P2;PMS_P1;PMS_P2;Temp;Humidity;BMP_temperature;BMP_pressure;BME280_temperature;BME280_humidity;BME280_pressure;Samples;Min_cycle;Max_cycle;Signal;HPM_P1;HPM_P2
2022/04/08 00:01:01;;;;;;;1.93;1.33;;;12.90;36.10;;;;;;10391920;28;20231;-75
2022/04/08 00:06:08;;;;;;;1.67;1.10;;;13.00;35.90;;;;;;10390285;28;20229;-75
2022/04/08 00:11:11;;;;;;;2.10;1.00;;;13.00;36.10;;;;;;10396051;28;20225;-75
2022/04/08 00:16:15;;;;;;;2.50;1.20;;;13.00;35.50;;;;;;10393042;28;20236;-75
2022/04/08 00:21:19;;;;;;;3.23;1.10;;;12.90;35.30;;;;;;10393545;28;20233;-75
2022/04/08 00:26:22;;;;;;;3.90;1.30;;;12.90;35.60;;;;;;10393603;28;20238;-75
2022/04/08 00:31:26;;;;;;;2.93;1.27;;;12.90;35.40;;;;;;10397972;28;20225;-75
2022/04/08 00:36:31;;;;;;;3.70;1.30;;;12.90;35.40;;;;;;10392971;28;20261;-75
2022/04/08 00:41:34;;;;;;;3.87;1.30;;;12.80;35.50;;;;;;10389790;28;20244;-76
2022/04/08 00:46:38;;;;;;;5.27;1.50;;;12.90;35.10;;;;;;10390316;28;20241;-75
2022/04/08 00:51:42;;;;;;;1.60;1.30;;;12.90;34.80;;;;;;10384034;28;20598;-75
2022/04/08 00:56:46;;;;;;;5.73;1.67;;;12.90;34.60;;;;;;10393280;28;20327;-75
2022/04/08 01:01:49;;;;;;;3.97;1.60;;;12.90;34.30;;;;;;10393051;28;20228;-74
2022/04/08 01:06:55;;;;;;;4.67;1.40;;;12.80;33.60;;;;;;10394152;28;20238;-75
2022/04/08 01:11:58;;;;;;;3.07;1.33;;;12.80;33.70;;;;;;10383973;28;20227;-75
2022/04/08 01:17:01;;;;;;;2.70;1.50;;;12.80;33.10;;;;;;10386465;28;20245;-75
2022/04/08 01:22:06;;;;;;;3.40;1.40;;;12.80;33.10;;;;;;10388981;28;20221;-74
2022/04/08 01:27:11;;;;;;;4.00;1.43;;;12.80;32.80;;;;;;10390531;28;20240;-75
2022/04/08 01:32:15;;;;;;;2.33;1.30;;;12.70;32.30;;;;;;10380247;28;20293;-75
2022/04/08 01:37:19;;;;;;;5.03;1.50;;;12.70;32.10;;;;;;10389819;28;20233;-75
2022/04/08 01:42:24;;;;;;;2.30;1.20;;;12.60;32.00;;;;;;10393064;28;20249;-75
2022/04/08 01:47:28;;;;;;;3.67;1.20;;;12.60;31.90;;;;;;10391994;28;20229;-74
2022/04/08 01:52:31;;;;;;;1.73;1.13;;;12.60;31.70;;;;;;10394704;28;20228;-75
2022/04/08 01:57:36;;;;;;;4.27;1.20;;;12.60;31.90;;;;;;10382803;28;20230;-75
2022/04/08 02:02:40;;;;;;;3.30;1.17;;;12.60;31.00;;;;;;10394842;28;20217;-75
2022/04/08 02:07:43;;;;;;;1.97;1.13;;;12.60;31.50;;;;;;10383653;28;20234;-75
2022/04/08 02:12:47;;;;;;;1.70;1.20;;;12.50;30.90;;;;;;10385788;28;20218;-74
2022/04/08 02:17:51;;;;;;;2.43;1.00;;;12.50;30.80;;;;;;10381967;28;20234;-75
2022/04/08 02:22:54;;;;;;;3.57;1.17;;;12.50;30.20;;;;;;10383887;28;20232;-74
2022/04/08 02:27:58;;;;;;;1.67;1.10;;;12.40;30.00;;;;;;10386818;28;20233;-74
2022/04/08 02:33:04;;;;;;;1.90;1.20;;;12.40;30.20;;;;;;10384218;28;20754;-75
2022/04/08 02:38:07;;;;;;;2.03;1.03;;;12.40;30.60;;;;;;10380819;28;20245;-74
2022/04/08 02:43:11;;;;;;;3.50;1.27;;;12.40;30.40;;;;;;10390501;28;20256;-74
2022/04/08 02:48:15;;;;;;;3.27;1.30;;;12.40;30.00;;;;;;10385038;28;20710;-74
2022/04/08 02:53:18;;;;;;;2.40;1.30;;;12.40;30.50;;;;;;10374688;28;20217;-75
2022/04/08 02:58:22;;;;;;;3.03;0.90;;;12.30;30.40;;;;;;10381174;28;20226;-74
2022/04/08 03:03:26;;;;;;;6.33;1.47;;;12.30;30.20;;;;;;10378796;28;20309;-74
2022/04/08 03:08:30;;;;;;;2.73;1.10;;;12.30;31.10;;;;;;10386238;28;20244;-74
2022/04/08 03:13:35;;;;;;;3.50;1.13;;;12.30;30.30;;;;;;10392908;28;20574;-74
2022/04/08 03:18:38;;;;;;;2.03;0.90;;;12.30;30.20;;;;;;10381965;28;20310;-74
2022/04/08 03:23:43;;;;;;;3.93;1.43;;;12.30;30.20;;;;;;10382843;28;20230;-74
2022/04/08 03:28:47;;;;;;;3.27;1.20;;;12.30;30.50;;;;;;10382196;28;20230;-74
2022/04/08 03:33:50;;;;;;;3.23;1.23;;;12.30;30.40;;;;;;10385338;28;20989;-74
2022/04/08 03:38:54;;;;;;;3.30;1.80;;;12.30;30.60;;;;;;10382514;28;20228;-74
2022/04/08 03:43:58;;;;;;;3.23;2.10;;;12.40;30.80;;;;;;10379756;28;20221;-74
2022/04/08 03:49:01;;;;;;;2.30;1.60;;;12.40;30.60;;;;;;10385237;28;20237;-74
2022/04/08 03:54:05;;;;;;;4.13;1.70;;;12.40;30.90;;;;;;10394914;28;20309;-74
2022/04/08 03:59:09;;;;;;;4.13;1.60;;;12.40;30.90;;;;;;10387700;28;20237;-74
2022/04/08 04:04:13;;;;;;;3.87;1.67;;;12.30;31.00;;;;;;10380184;28;20226;-74
2022/04/08 04:09:16;;;;;;;3.10;1.10;;;12.30;31.10;;;;;;10382569;28;20238;-74
2022/04/08 04:14:20;;;;;;;4.07;1.60;;;12.20;31.20;;;;;;10398395;28;20240;-75
2022/04/08 04:19:24;;;;;;;2.57;1.30;;;12.20;31.20;;;;;;10415229;28;20313;-75
2022/04/08 04:24:27;;;;;;;3.17;1.20;;;12.10;31.40;;;;;;10423258;28;20232;-75
2022/04/08 04:29:32;;;;;;;4.97;1.90;;;12.00;31.40;;;;;;10427788;28;20728;-75
2022/04/08 04:34:38;;;;;;;4.47;1.50;;;12.00;31.60;;;;;;10416392;28;20793;-75
2022/04/08 04:39:41;;;;;;;2.67;1.30;;;11.90;31.30;;;;;;10424155;28;20241;-75
2022/04/08 04:44:46;;;;;;;2.83;1.50;;;12.00;31.50;;;;;;10447701;28;20292;-75
2022/04/08 04:49:49;;;;;;;2.67;1.20;;;12.00;31.50;;;;;;10399909;28;20600;-76
2022/04/08 04:54:52;;;;;;;3.57;1.10;;;12.00;31.50;;;;;;10385573;28;20217;-75
2022/04/08 04:59:57;;;;;;;2.87;1.40;;;12.00;31.50;;;;;;10383598;28;20232;-74
2022/04/08 05:05:00;;;;;;;4.40;1.30;;;12.00;31.40;;;;;;10386211;28;20222;-75
2022/04/08 05:10:04;;;;;;;4.13;1.30;;;12.10;31.90;;;;;;10380477;28;20725;-74
2022/04/08 05:15:11;;;;;;;3.77;1.30;;;12.10;31.50;;;;;;10384517;28;20739;-74
2022/04/08 05:20:15;;;;;;;2.37;1.27;;;12.20;31.40;;;;;;10381253;28;20599;-74
2022/04/08 05:25:18;;;;;;;4.07;1.47;;;12.20;31.20;;;;;;10382692;28;20947;-75
2022/04/08 05:30:23;;;;;;;3.57;1.30;;;12.20;31.00;;;;;;10386295;28;20238;-73
2022/04/08 05:35:26;;;;;;;2.43;1.30;;;12.20;31.10;;;;;;10384972;28;20218;-74
2022/04/08 05:40:29;;;;;;;2.17;1.30;;;12.20;31.30;;;;;;10384118;28;20300;-74
2022/04/08 05:45:34;;;;;;;4.13;1.50;;;12.20;30.90;;;;;;10380731;28;20226;-75
2022/04/08 05:50:37;;;;;;;5.73;2.80;;;12.20;31.10;;;;;;10381862;28;20222;-74
2022/04/08 05:55:40;;;;;;;6.40;2.80;;;12.20;31.00;;;;;;10390544;28;20225;-74
2022/04/08 06:00:46;;;;;;;5.17;2.60;;;12.20;31.20;;;;;;10417968;28;20240;-74
2022/04/08 06:05:49;;;;;;;4.70;2.70;;;12.20;31.20;;;;;;10399161;28;20265;-75
2022/04/08 06:10:52;;;;;;;4.27;2.00;;;12.20;31.50;;;;;;10397504;28;20313;-75
2022/04/08 06:15:57;;;;;;;5.17;1.90;;;12.20;31.20;;;;;;10403711;28;20248;-75
2022/04/08 06:21:01;;;;;;;2.87;1.40;;;12.20;31.40;;;;;;10393686;28;20229;-74
2022/04/08 06:26:04;;;;;;;1.93;1.70;;;12.20;31.30;;;;;;10409335;28;20310;-73
2022/04/08 06:31:10;;;;;;;3.83;1.87;;;12.10;31.30;;;;;;10388807;28;20222;-75
2022/04/08 06:36:19;;;;;;;7.23;1.83;;;12.20;31.50;;;;;;10389513;28;20940;-74
2022/04/08 06:41:23;;;;;;;4.53;1.70;;;12.20;31.60;;;;;;10379762;28;20237;-74
2022/04/08 06:46:27;;;;;;;4.50;1.40;;;12.20;31.40;;;;;;10378064;28;20226;-74
2022/04/08 06:51:31;;;;;;;2.90;1.40;;;12.20;31.40;;;;;;10388380;28;20225;-74
2022/04/08 06:56:34;;;;;;;2.20;1.23;;;12.20;31.40;;;;;;10385143;28;20230;-74
2022/04/08 07:01:39;;;;;;;2.53;1.63;;;12.20;31.30;;;;;;10374367;28;20301;-74
2022/04/08 07:06:42;;;;;;;2.97;1.40;;;12.30;31.40;;;;;;10398953;28;20739;-74
2022/04/08 07:11:46;;;;;;;4.40;1.30;;;12.30;31.90;;;;;;10378793;28;20226;-75
2022/04/08 07:16:52;;;;;;;2.90;1.33;;;12.30;31.00;;;;;;10380177;28;20949;-75
2022/04/08 07:21:56;;;;;;;2.67;1.30;;;12.40;30.70;;;;;;10382020;28;20229;-75
2022/04/08 07:26:59;;;;;;;2.00;1.10;;;12.40;30.20;;;;;;10377464;28;20960;-75
2022/04/08 07:32:04;;;;;;;2.57;1.40;;;12.50;30.20;;;;;;10378851;28;20310;-75
2022/04/08 07:37:08;;;;;;;4.30;1.43;;;12.50;30.20;;;;;;10384920;28;20316;-75
2022/04/08 07:42:12;;;;;;;3.47;1.37;;;12.50;30.60;;;;;;10388478;28;20229;-75
2022/04/08 07:47:18;;;;;;;3.00;1.40;;;12.50;30.00;;;;;;10379182;28;21096;-75
2022/04/08 07:52:21;;;;;;;3.73;1.20;;;12.60;30.00;;;;;;10375721;28;20224;-74
2022/04/08 07:57:24;;;;;;;1.30;0.90;;;12.60;30.00;;;;;;10385753;28;20736;-72
2022/04/08 08:02:29;;;;;;;3.27;1.20;;;12.70;30.10;;;;;;10387304;28;20297;-72
2022/04/08 08:07:33;;;;;;;2.17;1.03;;;12.60;30.00;;;;;;10390018;28;20714;-72
2022/04/08 08:12:36;;;;;;;2.53;1.00;;;12.70;30.10;;;;;;10397681;28;20229;-72
2022/04/08 08:17:41;;;;;;;2.30;1.20;;;12.60;30.00;;;;;;10400965;28;20738;-71
2022/04/08 08:22:44;;;;;;;2.37;1.17;;;12.60;30.00;;;;;;10391175;28;20584;-72
2022/04/08 08:27:49;;;;;;;2.33;0.90;;;12.50;30.00;;;;;;10393436;28;20218;-72
2022/04/08 08:32:54;;;;;;;1.97;1.10;;;12.50;30.00;;;;;;10395238;28;20230;-73
2022/04/08 08:37:57;;;;;;;3.63;1.53;;;12.50;30.60;;;;;;10394131;28;20229;-72
2022/04/08 08:43:01;;;;;;;2.00;1.30;;;12.50;31.00;;;;;;10390813;28;20232;-72
2022/04/08 08:48:06;;;;;;;1.67;1.33;;;12.50;31.50;;;;;;10384309;28;20272;-73
2022/04/08 08:53:09;;;;;;;4.50;1.37;;;12.50;31.90;;;;;;10393436;28;20229;-73
2022/04/08 08:58:13;;;;;;;3.03;1.50;;;12.50;31.60;;;;;;10380573;28;20222;-74
2022/04/08 09:03:17;;;;;;;1.37;1.00;;;12.60;31.90;;;;;;10377003;28;20253;-74
2022/04/08 09:08:21;;;;;;;1.17;1.00;;;12.60;31.80;;;;;;10375101;28;20240;-74
2022/04/08 09:13:24;;;;;;;2.13;1.30;;;12.70;31.90;;;;;;10378080;28;20226;-74
2022/04/08 09:18:32;;;;;;;1.93;1.00;;;12.70;32.20;;;;;;10371698;28;20228;-74
2022/04/08 09:23:40;;;;;;;1.43;1.20;;;12.70;32.20;;;;;;10376910;28;20226;-74
2022/04/08 09:28:43;;;;;;;1.77;1.10;;;12.80;32.70;;;;;;10376522;28;20324;-75
2022/04/08 09:33:50;;;;;;;2.60;1.27;;;12.80;32.90;;;;;;10378408;28;20226;-74
2022/04/08 09:38:53;;;;;;;1.80;1.40;;;12.80;33.10;;;;;;10378911;28;20226;-72
2022/04/08 09:44:00;;;;;;;2.10;1.20;;;12.90;32.90;;;;;;10412142;28;20229;-72
2022/04/08 09:49:06;;;;;;;2.00;1.40;;;12.90;33.80;;;;;;10430940;28;20225;-72
2022/04/08 09:54:12;;;;;;;1.80;1.40;;;12.90;33.80;;;;;;10411493;28;20304;-73
2022/04/08 09:59:16;;;;;;;2.87;1.27;;;13.00;33.40;;;;;;10409502;28;20702;-73
2022/04/08 10:04:41;;;;;;;2.33;1.37;;;12.90;33.40;;;;;;10434241;28;20721;-73
2022/04/08 10:09:55;;;;;;;1.83;1.67;;;12.90;33.60;;;;;;10410572;28;20246;-73
2022/04/08 10:15:06;;;;;;;3.37;2.60;;;12.90;34.40;;;;;;10403578;28;20228;-73
2022/04/08 10:20:22;;;;;;;1.60;1.50;;;12.90;34.90;;;;;;10398989;28;20608;-73
2022/04/08 10:25:36;;;;;;;1.87;1.60;;;13.00;34.70;;;;;;10410555;28;20221;-73
2022/04/08 10:30:45;;;;;;;1.57;1.47;;;12.90;34.70;;;;;;10399106;28;20609;-74
2022/04/08 10:35:54;;;;;;;2.43;1.40;;;12.80;34.90;;;;;;10414891;28;20228;-74
2022/04/08 10:41:01;;;;;;;1.70;1.57;;;12.70;35.30;;;;;;10415400;28;20226;-74
2022/04/08 10:46:05;;;;;;;3.37;3.07;;;12.60;35.20;;;;;;10428648;28;20289;-74
2022/04/08 10:51:13;;;;;;;3.30;3.00;;;12.60;35.20;;;;;;10420901;28;20772;-74
2022/04/08 10:56:17;;;;;;;5.50;4.90;;;12.60;35.70;;;;;;10415882;28;20236;-74
2022/04/08 11:01:22;;;;;;;2.03;1.80;;;12.70;34.70;;;;;;10404491;28;20218;-74
2022/04/08 11:06:28;;;;;;;2.50;1.30;;;12.70;34.70;;;;;;10408502;28;20292;-74
2022/04/08 11:11:32;;;;;;;1.57;1.30;;;12.60;34.90;;;;;;10403002;28;20308;-74
2022/04/08 11:16:38;;;;;;;0.97;0.97;;;12.60;34.60;;;;;;10411281;28;20305;-74
2022/04/08 11:21:43;;;;;;;2.47;1.83;;;12.60;34.60;;;;;;10411336;28;20238;-74
2022/04/08 11:26:48;;;;;;;1.90;1.67;;;12.60;35.10;;;;;;10403766;28;20248;-74
2022/04/08 11:31:53;;;;;;;3.97;2.83;;;12.60;34.80;;;;;;10431175;28;20316;-74
2022/04/08 11:36:59;;;;;;;2.70;2.27;;;12.60;34.80;;;;;;10428146;28;20234;-74
2022/04/08 11:42:04;;;;;;;3.00;1.70;;;12.60;35.10;;;;;;10434860;28;20234;-74
2022/04/08 11:47:08;;;;;;;2.73;2.50;;;12.50;34.80;;;;;;10406880;28;20428;-74
2022/04/08 11:52:13;;;;;;;3.83;2.27;;;12.40;35.00;;;;;;10398371;28;20253;-75
2022/04/08 11:57:27;;;;;;;2.80;1.37;;;12.40;35.30;;;;;;10386812;28;20229;-74
2022/04/08 12:02:31;;;;;;;1.60;1.50;;;12.40;35.90;;;;;;10381667;28;20335;-73
2022/04/08 12:07:41;;;;;;;0.90;0.90;;;12.40;35.00;;;;;;10389243;28;20225;-74
2022/04/08 12:12:45;;;;;;;2.03;1.20;;;12.30;35.90;;;;;;10382098;28;20226;-75
2022/04/08 12:17:49;;;;;;;2.53;1.80;;;12.20;35.40;;;;;;10382124;28;20226;-74
2022/04/08 12:22:54;;;;;;;2.47;1.80;;;12.20;35.80;;;;;;10377593;28;20230;-74
2022/04/08 12:27:59;;;;;;;1.97;1.70;;;12.20;36.30;;;;;;10374673;28;20248;-74
2022/04/08 12:33:12;;;;;;;2.00;1.23;;;12.20;36.10;;;;;;10378480;28;20247;-74
2022/04/08 12:38:19;;;;;;;4.83;1.67;;;12.20;36.10;;;;;;10382464;28;20228;-74
2022/04/08 12:43:22;;;;;;;1.63;1.30;;;12.20;37.00;;;;;;10378184;28;20245;-74
2022/04/08 12:48:26;;;;;;;1.23;1.17;;;12.20;36.70;;;;;;10381798;28;20230;-74
2022/04/08 12:53:30;;;;;;;3.20;1.27;;;12.10;36.90;;;;;;10392255;28;20265;-74
2022/04/08 12:58:33;;;;;;;2.40;1.40;;;12.20;37.60;;;;;;10393173;28;20230;-74
2022/04/08 13:03:38;;;;;;;1.53;1.43;;;12.20;37.20;;;;;;10383564;28;20226;-73
2022/04/08 13:08:43;;;;;;;1.70;1.60;;;12.20;37.50;;;;;;10365124;28;20234;-73
2022/04/08 13:13:46;;;;;;;6.27;4.53;;;12.20;38.00;;;;;;10374537;28;20230;-76
2022/04/08 13:18:49;;;;;;;5.83;4.70;;;12.20;37.70;;;;;;10378662;28;20237;-76
2022/04/08 13:23:54;;;;;;;2.77;2.37;;;12.20;37.70;;;;;;10383421;28;20713;-73
2022/04/08 13:28:57;;;;;;;2.30;2.10;;;12.30;38.60;;;;;;10403151;28;20240;-73
2022/04/08 13:34:00;;;;;;;2.70;2.13;;;12.30;38.10;;;;;;10417901;28;20239;-73
2022/04/08 13:39:25;;;;;;;2.07;1.90;;;12.40;38.30;;;;;;10360885;28;20586;-72
2022/04/08 13:44:28;;;;;;;2.67;2.20;;;12.50;39.20;;;;;;10416566;28;20221;-72
2022/04/08 13:49:31;;;;;;;2.57;2.37;;;12.60;38.70;;;;;;10423222;28;20764;-73
2022/04/08 13:54:36;;;;;;;2.87;2.67;;;12.70;39.00;;;;;;10385534;28;20233;-74
2022/04/08 13:59:39;;;;;;;3.57;2.57;;;12.80;39.60;;;;;;10379956;28;20234;-73
2022/04/08 14:04:42;;;;;;;2.87;2.47;;;12.90;39.10;;;;;;10371277;28;20266;-73
2022/04/08 14:09:47;;;;;;;3.23;2.33;;;13.00;39.40;;;;;;10431104;28;20729;-72
2022/04/08 14:14:50;;;;;;;2.30;1.80;;;13.10;40.40;;;;;;10431661;28;20231;-73
2022/04/08 14:20:13;;;;;;;2.30;2.10;;;13.20;39.90;;;;;;10391459;28;20225;-73
2022/04/08 14:25:18;;;;;;;2.83;2.53;;;13.30;40.40;;;;;;10384161;28;20226;-74
2022/04/08 14:30:39;;;;;;;2.57;2.37;;;13.50;41.30;;;;;;10393494;28;20284;-73
2022/04/08 14:35:42;;;;;;;3.10;2.40;;;13.60;41.20;;;;;;10405007;28;20311;-74
2022/04/08 14:40:49;;;;;;;3.80;1.40;;;13.70;41.10;;;;;;10409007;28;20226;-74
2022/04/08 14:45:52;;;;;;;0.80;0.80;;;13.80;41.80;;;;;;10398504;28;20320;-72
2022/04/08 14:50:56;;;;;;;0.70;0.70;;;14.00;41.30;;;;;;10399137;28;20233;-72
2022/04/08 14:56:01;;;;;;;0.80;0.70;;;14.30;41.70;;;;;;10394683;28;20226;-73
2022/04/08 15:01:04;;;;;;;0.67;0.67;;;14.50;41.60;;;;;;10374126;28;20230;-74
2022/04/08 15:06:07;;;;;;;0.90;0.90;;;14.80;41.10;;;;;;10374212;28;20256;-74
2022/04/08 15:11:13;;;;;;;1.63;0.90;;;14.90;41.00;;;;;;10376891;28;20594;-74
2022/04/08 15:16:16;;;;;;;1.33;0.90;;;15.00;41.50;;;;;;10378096;28;20230;-75
2022/04/08 15:21:19;;;;;;;1.47;1.07;;;15.00;40.70;;;;;;10372960;28;20730;-75
2022/04/08 15:26:25;;;;;;;1.67;1.50;;;15.00;40.80;;;;;;10368519;28;20747;-74
2022/04/08 15:31:28;;;;;;;2.00;1.90;;;14.90;40.60;;;;;;10377011;28;20229;-74
2022/04/08 15:36:31;;;;;;;2.30;2.10;;;14.70;40.00;;;;;;10382584;28;20225;-75
2022/04/08 15:41:37;;;;;;;2.10;2.00;;;14.40;39.80;;;;;;10369680;28;20222;-75
2022/04/08 15:46:40;;;;;;;1.87;1.77;;;14.20;40.20;;;;;;10373076;28;20313;-76
2022/04/08 15:51:43;;;;;;;2.27;2.10;;;14.00;39.60;;;;;;10372256;28;20225;-76
2022/04/08 15:56:48;;;;;;;1.83;1.70;;;13.90;39.80;;;;;;10377349;28;20244;-76
2022/04/08 16:01:52;;;;;;;2.47;1.60;;;13.80;40.00;;;;;;10374853;28;20221;-76
2022/04/08 16:06:55;;;;;;;1.90;1.77;;;13.80;39.70;;;;;;10371163;28;20233;-75
2022/04/08 16:11:59;;;;;;;2.47;2.23;;;13.70;39.70;;;;;;10373414;28;20232;-76
2022/04/08 16:17:03;;;;;;;1.40;1.30;;;13.70;40.60;;;;;;10370048;28;20734;-75
2022/04/08 16:22:07;;;;;;;1.47;1.07;;;13.60;40.30;;;;;;10373980;28;20236;-73
2022/04/08 16:27:11;;;;;;;0.80;0.80;;;13.60;40.80;;;;;;10375020;28;20231;-74
2022/04/08 16:32:14;;;;;;;0.80;0.80;;;13.60;41.30;;;;;;10373978;28;20226;-74
2022/04/08 16:37:38;;;;;;;0.83;0.77;;;13.60;41.00;;;;;;10374633;28;20366;-74
2022/04/08 16:42:43;;;;;;;2.13;1.30;;;13.70;41.20;;;;;;10386031;28;20234;-74
2022/04/08 16:47:47;;;;;;;0.70;0.70;;;13.70;41.60;;;;;;10374655;28;20225;-75
2022/04/08 16:52:50;;;;;;;0.60;0.60;;;13.90;41.30;;;;;;10379762;28;20228;-74
2022/04/08 16:57:58;;;;;;;0.83;0.83;;;14.00;41.30;;;;;;10368869;28;20610;-74
2022/04/08 17:03:01;;;;;;;0.70;0.70;;;14.20;41.30;;;;;;10376224;28;20240;-74
2022/04/08 17:08:05;;;;;;;1.13;0.90;;;14.40;40.90;;;;;;10370047;28;20941;-74
2022/04/08 17:13:09;;;;;;;1.50;0.77;;;14.50;40.60;;;;;;10379615;28;20221;-74
2022/04/08 17:18:13;;;;;;;0.93;0.70;;;14.70;40.70;;;;;;10414823;28;20226;-74
2022/04/08 17:23:16;;;;;;;1.03;0.70;;;14.80;40.10;;;;;;10410398;28;20230;-74
2022/04/08 17:28:21;;;;;;;0.93;0.60;;;14.90;39.70;;;;;;10415260;28;20316;-74
2022/04/08 17:33:24;;;;;;;1.17;0.80;;;15.00;39.60;;;;;;10422799;28;20285;-74
2022/04/08 17:38:28;;;;;;;1.37;1.00;;;15.00;39.50;;;;;;10420003;28;20313;-76
2022/04/08 17:43:34;;;;;;;2.97;0.80;;;15.10;39.40;;;;;;10374950;28;20222;-74
2022/04/08 17:48:38;;;;;;;0.60;0.60;;;15.10;39.10;;;;;;10381665;28;20222;-74
2022/04/08 17:53:41;;;;;;;0.67;0.60;;;15.10;39.00;;;;;;10384648;28;20241;-74
2022/04/08 17:58:48;;;;;;;1.00;1.00;;;15.10;38.90;;;;;;10386510;28;20699;-73
2022/04/08 18:03:51;;;;;;;1.10;1.00;;;15.10;38.70;;;;;;10379293;28;20226;-73
2022/04/08 18:08:55;;;;;;;0.80;0.60;;;15.10;39.10;;;;;;10377037;28;20601;-73
2022/04/08 18:14:00;;;;;;;0.60;0.60;;;15.10;38.40;;;;;;10383421;28;20230;-73
2022/04/08 18:19:03;;;;;;;0.60;0.60;;;15.10;38.50;;;;;;10383116;28;20229;-74
2022/04/08 18:24:07;;;;;;;0.70;0.70;;;15.10;38.40;;;;;;10386543;28;20233;-73
2022/04/08 18:29:12;;;;;;;0.77;0.77;;;15.10;38.40;;;;;;10377157;28;20221;-73
2022/04/08 18:34:41;;;;;;;0.83;0.80;;;15.10;38.40;;;;;;10380371;28;20719;-75
2022/04/08 18:39:44;;;;;;;0.77;0.77;;;15.20;38.70;;;;;;10375695;28;20316;-75
2022/04/08 18:44:49;;;;;;;1.23;0.70;;;15.00;37.20;;;;;;10384277;28;20238;-74
2022/04/08 18:49:52;;;;;;;0.63;0.63;;;14.60;36.80;;;;;;10382305;28;20232;-74
2022/04/08 18:54:56;;;;;;;0.90;0.70;;;14.20;36.70;;;;;;10382168;28;20239;-73
2022/04/08 19:00:05;;;;;;;1.27;1.00;;;13.80;37.10;;;;;;10390363;28;20234;-73
2022/04/08 19:05:09;;;;;;;1.00;1.00;;;13.50;37.50;;;;;;10413893;28;20776;-73
2022/04/08 19:10:12;;;;;;;1.03;0.93;;;13.30;37.50;;;;;;10403750;28;20222;-74
2022/04/08 19:15:18;;;;;;;0.87;0.87;;;13.20;37.60;;;;;;10372277;28;20231;-74
2022/04/08 19:20:21;;;;;;;1.10;1.00;;;13.10;37.50;;;;;;10384263;28;21314;-74
2022/04/08 19:25:28;;;;;;;1.73;1.63;;;13.10;37.60;;;;;;10367185;28;20256;-75
2022/04/08 19:30:39;;;;;;;3.80;2.47;;;13.10;37.60;;;;;;10365464;28;20233;-75
2022/04/08 19:35:42;;;;;;;0.83;0.83;;;13.00;37.60;;;;;;10346846;28;20233;-76
2022/04/08 19:40:46;;;;;;;1.70;0.80;;;12.80;37.70;;;;;;10367702;28;20230;-74
2022/04/08 19:45:51;;;;;;;0.70;0.70;;;12.60;37.90;;;;;;10369614;28;20233;-74
2022/04/08 19:50:54;;;;;;;1.60;1.47;;;12.50;38.30;;;;;;10380377;28;20221;-74
2022/04/08 19:56:01;;;;;;;1.20;1.20;;;12.50;38.20;;;;;;10381979;28;21001;-75
2022/04/08 20:01:05;;;;;;;1.63;1.10;;;12.40;38.20;;;;;;10372433;28;20325;-74
2022/04/08 20:06:09;;;;;;;1.50;1.10;;;12.40;38.70;;;;;;10374283;28;20244;-73
2022/04/08 20:11:12;;;;;;;1.50;1.40;;;12.40;38.50;;;;;;10386132;28;20230;-75
2022/04/08 20:16:17;;;;;;;2.30;2.00;;;12.40;38.50;;;;;;10401553;28;20238;-73
2022/04/08 20:21:21;;;;;;;2.97;2.60;;;12.40;38.80;;;;;;10381557;28;20224;-75
2022/04/08 20:26:25;;;;;;;3.30;2.60;;;12.40;38.50;;;;;;10375173;28;20234;-76
2022/04/08 20:31:30;;;;;;;4.07;2.53;;;12.40;38.60;;;;;;10374385;28;20762;-76
2022/04/08 20:36:34;;;;;;;3.20;2.90;;;12.40;38.70;;;;;;10369521;28;20222;-76
2022/04/08 20:41:37;;;;;;;3.67;2.60;;;12.30;38.30;;;;;;10378833;28;20226;-76
2022/04/08 20:46:41;;;;;;;1.77;1.60;;;12.20;38.20;;;;;;10377593;28;20230;-76
2022/04/08 20:51:45;;;;;;;1.77;1.10;;;12.10;38.70;;;;;;10376955;28;20348;-76
2022/04/08 20:56:49;;;;;;;0.97;0.90;;;11.90;38.70;;;;;;10379568;28;20230;-75
2022/04/08 21:01:55;;;;;;;1.17;1.10;;;11.90;38.90;;;;;;10381859;28;20225;-76
2022/04/08 21:06:59;;;;;;;1.57;1.00;;;11.90;39.10;;;;;;10385540;28;20234;-75
2022/04/08 21:12:02;;;;;;;1.30;1.10;;;11.80;38.70;;;;;;10397118;28;20222;-75
2022/04/08 21:17:08;;;;;;;5.20;4.80;;;11.70;38.60;;;;;;10375746;28;20233;-77
2022/04/08 21:22:12;;;;;;;5.50;5.07;;;11.70;39.00;;;;;;10377391;28;20234;-76
2022/04/08 21:27:15;;;;;;;4.30;4.00;;;11.70;38.80;;;;;;10375286;28;20280;-76
2022/04/08 21:32:20;;;;;;;2.60;2.50;;;11.60;38.60;;;;;;10382152;28;20306;-77
2022/04/08 21:37:24;;;;;;;2.07;1.83;;;11.60;38.80;;;;;;10382535;28;20308;-77
2022/04/08 21:42:27;;;;;;;1.40;1.30;;;11.60;38.70;;;;;;10384135;28;20241;-77
2022/04/08 21:47:32;;;;;;;1.17;1.17;;;11.50;38.50;;;;;;10380350;28;20230;-77
2022/04/08 21:52:36;;;;;;;1.40;1.23;;;11.50;39.10;;;;;;10389238;28;20221;-78
2022/04/08 21:57:39;;;;;;;1.43;1.33;;;11.50;38.80;;;;;;10380893;28;20229;-77
2022/04/08 22:02:44;;;;;;;1.23;1.13;;;11.40;38.70;;;;;;10379994;28;20234;-77
2022/04/08 22:07:48;;;;;;;1.00;1.00;;;11.40;39.20;;;;;;10382589;28;20241;-78
2022/04/08 22:12:52;;;;;;;1.00;1.00;;;11.20;39.30;;;;;;10376220;28;20236;-77
2022/04/08 22:18:01;;;;;;;1.20;1.10;;;11.20;40.30;;;;;;10379614;28;20230;-77
2022/04/08 22:23:05;;;;;;;1.13;1.13;;;11.30;41.00;;;;;;10380135;28;20228;-77
2022/04/08 22:28:09;;;;;;;2.43;1.27;;;11.30;40.60;;;;;;10384394;28;20230;-76
2022/04/08 22:33:14;;;;;;;1.00;1.00;;;11.30;41.20;;;;;;10376428;28;20230;-76
2022/04/08 22:38:17;;;;;;;1.00;0.90;;;11.40;41.20;;;;;;10376253;28;20234;-77
2022/04/08 22:43:20;;;;;;;1.17;1.00;;;11.50;41.30;;;;;;10379323;28;20230;-77
2022/04/08 22:48:25;;;;;;;0.80;0.80;;;11.70;41.40;;;;;;10385089;28;20240;-77
2022/04/08 22:53:28;;;;;;;1.13;0.70;;;12.10;41.80;;;;;;10394986;28;20596;-77
2022/04/08 23:03:53;;;;;;;1.27;0.90;;;12.90;41.00;;;;;;10390676;28;20632;-77
2022/04/08 23:08:57;;;;;;;1.20;1.00;;;13.20;40.20;;;;;;10388543;28;20232;-77
2022/04/08 23:14:00;;;;;;;1.90;0.90;;;13.50;39.80;;;;;;10381207;28;20246;-76
2022/04/08 23:19:04;;;;;;;0.80;0.80;;;13.90;39.50;;;;;;10387410;28;20226;-76
2022/04/08 23:24:08;;;;;;;2.10;0.90;;;14.10;38.90;;;;;;10391521;28;20875;-76
2022/04/08 23:29:12;;;;;;;1.37;0.90;;;14.40;38.40;;;;;;10380100;28;20229;-78
2022/04/08 23:34:16;;;;;;;0.67;0.67;;;14.60;37.90;;;;;;10389543;28;20245;-77
2022/04/08 23:39:20;;;;;;;1.87;0.80;;;14.80;37.50;;;;;;10389763;28;20754;-76
2022/04/08 23:44:23;;;;;;;1.23;0.70;;;14.90;37.40;;;;;;10389519;28;20243;-77
2022/04/08 23:49:27;;;;;;;0.87;0.77;;;15.10;37.20;;;;;;10388679;28;20731;-77
2022/04/08 23:54:31;;;;;;;0.70;0.70;;;15.20;36.90;;;;;;10390806;28;20232;-76
2022/04/08 23:59:34;;;;;;;0.70;0.70;;;15.30;36.90;;;;;;10385859;28;20222;-77
